Terminal Aerodrome Forecast
Issued by NWS

Home | Current Version | Previous Version | Text Only | Print | Product List | Glossary On
Versions: 1 2 3 4 5 6 7 8 9 10 11 12 13 14 15 16 17 18 19 20 21 22 23 24 25 26 27 28 29 30
000
FTUS41 KBUF 260911 AAA
TAFIAG
TAF AMD
KIAG 260911Z 2609/2706 25005KT P6SM FEW040
     FM261300 24011G18KT P6SM VCSH BKN070
     FM261600 23015G21KT 6SM -SHRA OVC035
     FM262100 24015G23KT P6SM VCSH OVC040
     FM270300 23007KT P6SM OVC200
     FM270500 23006KT P6SM VCSH OVC130=

USA.gov is the U.S. government's official web portal to all federal, state and local government web resources and services.